sensor_id;sensor_type;location;lat;lon;timestamp;pressure;altitude;pressure_sealevel;temperature;humidity
15260;BME280;34462;51.368;12.364;2024-01-07T00:02:08;68336.31;;;-141.84;93.27
15260;BME280;34462;51.368;12.364;2024-01-07T00:04:36;59917.56;;;-141.84;91.12
15260;BME280;34462;51.368;12.364;2024-01-07T00:07:04;50467.75;;;-141.84;89.89
15260;BME280;34462;51.368;12.364;2024-01-07T00:09:33;48894.97;;;-141.84;89.81
15260;BME280;34462;51.368;12.364;2024-01-07T00:12:01;54140.00;;;-141.84;90.87
15260;BME280;34462;51.368;12.364;2024-01-07T00:14:29;49681.28;;;-141.84;89.45
15260;BME280;34462;51.368;12.364;2024-01-07T00:16:58;48108.81;;;-141.84;89.61
15260;BME280;34462;51.368;12.364;2024-01-07T00:19:28;50467.75;;;-141.84;90.18
15260;BME280;34462;51.368;12.364;2024-01-07T00:21:58;55452.34;;;-141.84;90.93
15260;BME280;34462;51.368;12.364;2024-01-07T00:24:26;60706.06;;;-141.84;91.85
15260;BME280;34462;51.368;12.364;2024-01-07T00:26:56;53615.19;;;-141.84;90.36
15260;BME280;34462;51.368;12.364;2024-01-07T00:29:24;43918.63;;;-141.84;88.90
15260;BME280;34462;51.368;12.364;2024-01-07T00:31:52;51516.59;;;-141.84;90.23
15260;BME280;34462;51.368;12.364;2024-01-07T00:34:21;53877.56;;;-141.84;90.05
15260;BME280;34462;51.368;12.364;2024-01-07T00:36:50;50729.94;;;-141.84;90.03
15260;BME280;34462;51.368;12.364;2024-01-07T00:39:19;42086.81;;;-141.84;88.13
15260;BME280;34462;51.368;12.364;2024-01-07T00:41:47;36116.84;;;-141.84;87.76
15260;BME280;34462;51.368;12.364;2024-01-07T00:44:15;35967.88;;;-141.84;88.12
15260;BME280;34462;51.368;12.364;2024-01-07T00:46:43;38678.97;;;-141.84;88.11
15260;BME280;34462;51.368;12.364;2024-01-07T00:49:15;37388.50;;;-141.84;87.98
15260;BME280;34462;51.368;12.364;2024-01-07T00:51:44;29391.91;;;-141.84;86.21
15260;BME280;34462;51.368;12.364;2024-01-07T00:54:13;20809.81;;;-141.84;83.80
15260;BME280;34462;51.368;12.364;2024-01-07T00:56:42;21275.38;;;-141.84;84.37
15260;BME280;34462;51.368;12.364;2024-01-07T00:59:10;20880.97;;;-141.84;83.56
15260;BME280;34462;51.368;12.364;2024-01-07T01:01:38;20021.16;;;-141.84;83.20
15260;BME280;34462;51.368;12.364;2024-01-07T01:04:07;19173.69;;;-141.84;81.68
15260;BME280;34462;51.368;12.364;2024-01-07T01:06:35;19409.41;;;-141.84;82.48
15260;BME280;34462;51.368;12.364;2024-01-07T01:09:03;18940.03;;;-141.84;81.21
15260;BME280;34462;51.368;12.364;2024-01-07T01:11:33;18911.56;;;-141.84;81.17
15260;BME280;34462;51.368;12.364;2024-01-07T01:14:01;19240.75;;;-141.84;81.94
15260;BME280;34462;51.368;12.364;2024-01-07T01:16:29;18970.50;;;-141.84;81.33
15260;BME280;34462;51.368;12.364;2024-01-07T01:18:58;19586.22;;;-141.84;82.95
15260;BME280;34462;51.368;12.364;2024-01-07T01:21:26;20480.50;;;-141.84;83.92
15260;BME280;34462;51.368;12.364;2024-01-07T01:23:54;21147.28;;;-141.84;84.62
15260;BME280;34462;51.368;12.364;2024-01-07T01:26:22;19637.03;;;-141.84;82.51
15260;BME280;34462;51.368;12.364;2024-01-07T01:28:52;19559.81;;;-141.84;82.52
15260;BME280;34462;51.368;12.364;2024-01-07T01:31:20;19133.06;;;-141.84;82.01
15260;BME280;34462;51.368;12.364;2024-01-07T01:33:49;19641.09;;;-141.84;82.88
15260;BME280;34462;51.368;12.364;2024-01-07T01:36:17;21159.50;;;-141.84;84.25
15260;BME280;34462;51.368;12.364;2024-01-07T01:38:46;20893.16;;;-141.84;83.77
15260;BME280;34462;51.368;12.364;2024-01-07T01:41:16;19978.47;;;-141.84;83.16
15260;BME280;34462;51.368;12.364;2024-01-07T01:43:44;19846.34;;;-141.84;82.83
15260;BME280;34462;51.368;12.364;2024-01-07T01:46:14;19066.00;;;-141.84;81.27
15260;BME280;34462;51.368;12.364;2024-01-07T01:48:43;18732.78;;;-141.84;80.21
15260;BME280;34462;51.368;12.364;2024-01-07T01:51:11;18493.03;;;-141.84;79.38
15260;BME280;34462;51.368;12.364;2024-01-07T01:53:40;18651.50;;;-141.84;80.12
15260;BME280;34462;51.368;12.364;2024-01-07T01:56:08;18826.25;;;-141.84;80.81
15260;BME280;34462;51.368;12.364;2024-01-07T01:58:37;18935.97;;;-141.84;81.44
15260;BME280;34462;51.368;12.364;2024-01-07T02:01:05;18417.84;;;-141.84;78.05
15260;BME280;34462;51.368;12.364;2024-01-07T02:03:35;18521.47;;;-141.84;79.52
15260;BME280;34462;51.368;12.364;2024-01-07T02:06:04;18444.28;;;-141.84;78.14
15260;BME280;34462;51.368;12.364;2024-01-07T02:08:33;18456.47;;;-141.84;79.31
15260;BME280;34462;51.368;12.364;2024-01-07T02:11:15;18411.75;;;-141.84;78.00
15260;BME280;34462;51.368;12.364;2024-01-07T02:13:44;18423.94;;;-141.84;78.04
15260;BME280;34462;51.368;12.364;2024-01-07T02:16:12;18456.47;;;-141.84;78.82
15260;BME280;34462;51.368;12.364;2024-01-07T02:18:45;18395.50;;;-141.84;78.33
15260;BME280;34462;51.368;12.364;2024-01-07T02:21:14;18310.19;;;-141.84;77.00
15260;BME280;34462;51.368;12.364;2024-01-07T02:23:43;18423.94;;;-141.84;77.78
15260;BME280;34462;51.368;12.364;2024-01-07T02:26:12;18497.09;;;-141.84;79.06
15260;BME280;34462;51.368;12.364;2024-01-07T02:28:40;18371.13;;;-141.84;77.92
15260;BME280;34462;51.368;12.364;2024-01-07T02:31:09;18458.50;;;-141.84;78.52
15260;BME280;34462;51.368;12.364;2024-01-07T02:33:37;18338.63;;;-141.84;76.79
15260;BME280;34462;51.368;12.364;2024-01-07T02:36:06;18304.09;;;-141.84;76.63
15260;BME280;34462;51.368;12.364;2024-01-07T02:38:34;18354.88;;;-141.84;77.18
15260;BME280;34462;51.368;12.364;2024-01-07T02:41:03;18348.78;;;-141.84;77.30
15260;BME280;34462;51.368;12.364;2024-01-07T02:43:33;18488.97;;;-141.84;78.66
15260;BME280;34462;51.368;12.364;2024-01-07T02:46:02;18391.44;;;-141.84;77.74
15260;BME280;34462;51.368;12.364;2024-01-07T02:48:30;18352.84;;;-141.84;77.03
15260;BME280;34462;51.368;12.364;2024-01-07T02:50:59;18263.47;;;-141.84;75.84
15260;BME280;34462;51.368;12.364;2024-01-07T02:53:27;18289.88;;;-141.84;75.96
15260;BME280;34462;51.368;12.364;2024-01-07T02:55:55;18277.69;;;-141.84;74.97
15260;BME280;34462;51.368;12.364;2024-01-07T02:58:23;18255.34;;;-141.84;74.73
15260;BME280;34462;51.368;12.364;2024-01-07T03:00:53;18287.84;;;-141.84;75.35
15260;BME280;34462;51.368;12.364;2024-01-07T03:03:21;18348.78;;;-141.84;75.87
15260;BME280;34462;51.368;12.364;2024-01-07T03:05:50;18271.59;;;-141.84;75.60
15260;BME280;34462;51.368;12.364;2024-01-07T03:08:18;18322.38;;;-141.84;76.03
15260;BME280;34462;51.368;12.364;2024-01-07T03:10:46;18322.38;;;-141.84;76.10
15260;BME280;34462;51.368;12.364;2024-01-07T03:13:15;18336.59;;;-141.84;76.17
15260;BME280;34462;51.368;12.364;2024-01-07T03:15:43;18275.66;;;-141.84;75.01
15260;BME280;34462;51.368;12.364;2024-01-07T03:18:12;18285.81;;;-141.84;75.29
15260;BME280;34462;51.368;12.364;2024-01-07T03:20:41;18228.91;;;-141.84;73.88
15260;BME280;34462;51.368;12.364;2024-01-07T03:23:09;18269.56;;;-141.84;74.03
15260;BME280;34462;51.368;12.364;2024-01-07T03:25:37;18257.38;;;-141.84;74.24
15260;BME280;34462;51.368;12.364;2024-01-07T03:28:06;18249.25;;;-141.84;74.49
15260;BME280;34462;51.368;12.364;2024-01-07T03:30:34;18316.28;;;-141.84;74.31
15260;BME280;34462;51.368;12.364;2024-01-07T03:33:03;18235.00;;;-141.84;73.27
15260;BME280;34462;51.368;12.364;2024-01-07T03:35:33;18222.81;;;-141.84;72.55
15260;BME280;34462;51.368;12.364;2024-01-07T03:38:01;18206.56;;;-141.84;72.58
15260;BME280;34462;51.368;12.364;2024-01-07T03:40:30;18208.59;;;-141.84;72.85
15260;BME280;34462;51.368;12.364;2024-01-07T03:42:58;18237.06;;;-141.84;72.06
15260;BME280;34462;51.368;12.364;2024-01-07T03:45:26;18235.00;;;-141.84;71.64
15260;BME280;34462;51.368;12.364;2024-01-07T03:47:55;18243.16;;;-141.84;72.39
15260;BME280;34462;51.368;12.364;2024-01-07T03:50:23;18226.88;;;-141.84;72.09
15260;BME280;34462;51.368;12.364;2024-01-07T03:52:52;18257.38;;;-141.84;72.06
15260;BME280;34462;51.368;12.364;2024-01-07T03:55:21;18216.72;;;-141.84;72.21
15260;BME280;34462;51.368;12.364;2024-01-07T03:57:49;18249.25;;;-141.84;71.27
15260;BME280;34462;51.368;12.364;2024-01-07T04:00:18;18241.13;;;-141.84;71.56
15260;BME280;34462;51.368;12.364;2024-01-07T04:02:46;18228.91;;;-141.84;71.63
15260;BME280;34462;51.368;12.364;2024-01-07T04:05:15;18235.00;;;-141.84;71.30
15260;BME280;34462;51.368;12.364;2024-01-07T04:07:43;18214.69;;;-141.84;72.08
15260;BME280;34462;51.368;12.364;2024-01-07T04:10:13;18208.59;;;-141.84;72.41
15260;BME280;34462;51.368;12.364;2024-01-07T04:12:41;18230.94;;;-141.84;72.11
15260;BME280;34462;51.368;12.364;2024-01-07T04:15:10;18237.06;;;-141.84;72.29
15260;BME280;34462;51.368;12.364;2024-01-07T04:17:39;18222.81;;;-141.84;72.14
15260;BME280;34462;51.368;12.364;2024-01-07T04:20:11;18222.81;;;-141.84;71.80
15260;BME280;34462;51.368;12.364;2024-01-07T04:22:40;18239.09;;;-141.84;71.41
15260;BME280;34462;51.368;12.364;2024-01-07T04:25:08;18226.88;;;-141.84;71.13
15260;BME280;34462;51.368;12.364;2024-01-07T04:27:39;18263.47;;;-141.84;69.57
15260;BME280;34462;51.368;12.364;2024-01-07T04:30:08;18247.22;;;-141.84;70.02
15260;BME280;34462;51.368;12.364;2024-01-07T04:32:37;18239.09;;;-141.84;70.53
15260;BME280;34462;51.368;12.364;2024-01-07T04:35:06;18228.91;;;-141.84;70.68
15260;BME280;34462;51.368;12.364;2024-01-07T04:37:35;18226.88;;;-141.84;69.16
15260;BME280;34462;51.368;12.364;2024-01-07T04:40:05;18235.00;;;-141.84;69.55
15260;BME280;34462;51.368;12.364;2024-01-07T04:42:34;18220.78;;;-141.84;70.18
15260;BME280;34462;51.368;12.364;2024-01-07T04:45:06;18237.06;;;-141.84;70.29
15260;BME280;34462;51.368;12.364;2024-01-07T04:47:34;18214.69;;;-141.84;70.20
15260;BME280;34462;51.368;12.364;2024-01-07T04:50:04;18228.91;;;-141.84;71.12
15260;BME280;34462;51.368;12.364;2024-01-07T04:52:33;18237.06;;;-141.84;69.28
15260;BME280;34462;51.368;12.364;2024-01-07T04:55:01;18214.69;;;-141.84;69.41
15260;BME280;34462;51.368;12.364;2024-01-07T04:57:29;18247.22;;;-141.84;68.91
15260;BME280;34462;51.368;12.364;2024-01-07T04:59:58;18249.25;;;-141.84;69.57
15260;BME280;34462;51.368;12.364;2024-01-07T05:02:27;18208.59;;;-141.84;69.59
15260;BME280;34462;51.368;12.364;2024-01-07T05:04:55;18243.16;;;-141.84;69.76
15260;BME280;34462;51.368;12.364;2024-01-07T05:07:24;18222.81;;;-141.84;69.46
15260;BME280;34462;51.368;12.364;2024-01-07T05:09:52;18247.22;;;-141.84;68.62
15260;BME280;34462;51.368;12.364;2024-01-07T05:12:20;18255.34;;;-141.84;68.50
15260;BME280;34462;51.368;12.364;2024-01-07T05:14:48;18243.16;;;-141.84;68.50
15260;BME280;34462;51.368;12.364;2024-01-07T05:17:17;18255.34;;;-141.84;67.81
15260;BME280;34462;51.368;12.364;2024-01-07T05:19:47;18235.00;;;-141.84;68.26
15260;BME280;34462;51.368;12.364;2024-01-07T05:22:16;18230.94;;;-141.84;68.89
15260;BME280;34462;51.368;12.364;2024-01-07T05:24:44;18253.31;;;-141.84;68.68
15260;BME280;34462;51.368;12.364;2024-01-07T05:27:12;18206.56;;;-141.84;68.46
15260;BME280;34462;51.368;12.364;2024-01-07T05:29:45;18257.38;;;-141.84;67.80
15260;BME280;34462;51.368;12.364;2024-01-07T05:32:14;18232.97;;;-141.84;67.91
15260;BME280;34462;51.368;12.364;2024-01-07T05:34:42;18249.25;;;-141.84;67.09
15260;BME280;34462;51.368;12.364;2024-01-07T05:37:12;18214.69;;;-141.84;67.14
15260;BME280;34462;51.368;12.364;2024-01-07T05:39:40;18261.44;;;-141.84;66.23
15260;BME280;34462;51.368;12.364;2024-01-07T05:42:09;18269.56;;;-141.84;65.42
15260;BME280;34462;51.368;12.364;2024-01-07T05:44:37;18241.13;;;-141.84;65.93
15260;BME280;34462;51.368;12.364;2024-01-07T05:47:07;18251.28;;;-141.84;66.09
15260;BME280;34462;51.368;12.364;2024-01-07T05:49:35;18228.91;;;-141.84;65.81
15260;BME280;34462;51.368;12.364;2024-01-07T05:52:04;18247.22;;;-141.84;64.90
15260;BME280;34462;51.368;12.364;2024-01-07T05:54:34;18263.47;;;-141.84;65.49
15260;BME280;34462;51.368;12.364;2024-01-07T05:57:03;18267.53;;;-141.84;64.78
15260;BME280;34462;51.368;12.364;2024-01-07T05:59:32;18287.84;;;-141.84;65.28
15260;BME280;34462;51.368;12.364;2024-01-07T06:02:00;18237.06;;;-141.84;65.11
15260;BME280;34462;51.368;12.364;2024-01-07T06:04:29;18257.38;;;-141.84;65.28
15260;BME280;34462;51.368;12.364;2024-01-07T06:06:57;18261.44;;;-141.84;65.46
15260;BME280;34462;51.368;12.364;2024-01-07T06:09:26;18253.31;;;-141.84;66.25
15260;BME280;34462;51.368;12.364;2024-01-07T06:11:56;18249.25;;;-141.84;65.67
15260;BME280;34462;51.368;12.364;2024-01-07T06:14:24;18261.44;;;-141.84;65.86
15260;BME280;34462;51.368;12.364;2024-01-07T06:16:53;18261.44;;;-141.84;65.30
15260;BME280;34462;51.368;12.364;2024-01-07T06:19:21;18261.44;;;-141.84;65.65
15260;BME280;34462;51.368;12.364;2024-01-07T06:21:50;18245.19;;;-141.84;66.42
15260;BME280;34462;51.368;12.364;2024-01-07T06:24:18;18245.19;;;-141.84;66.21
15260;BME280;34462;51.368;12.364;2024-01-07T06:26:46;18253.31;;;-141.84;66.04
15260;BME280;34462;51.368;12.364;2024-01-07T06:29:16;18245.19;;;-141.84;66.16
15260;BME280;34462;51.368;12.364;2024-01-07T06:31:45;18275.66;;;-141.84;66.08
15260;BME280;34462;51.368;12.364;2024-01-07T06:34:15;18237.06;;;-141.84;67.12
15260;BME280;34462;51.368;12.364;2024-01-07T06:36:44;18261.44;;;-141.84;66.74
15260;BME280;34462;51.368;12.364;2024-01-07T06:39:13;18271.59;;;-141.84;66.42
15260;BME280;34462;51.368;12.364;2024-01-07T06:41:41;18261.44;;;-141.84;66.73
15260;BME280;34462;51.368;12.364;2024-01-07T06:44:09;18273.63;;;-141.84;67.78
15260;BME280;34462;51.368;12.364;2024-01-07T06:46:39;18251.28;;;-141.84;68.82
15260;BME280;34462;51.368;12.364;2024-01-07T06:49:07;18241.13;;;-141.84;68.47
15260;BME280;34462;51.368;12.364;2024-01-07T06:51:37;18263.47;;;-141.84;67.52
15260;BME280;34462;51.368;12.364;2024-01-07T06:54:05;18241.13;;;-141.84;68.09
15260;BME280;34462;51.368;12.364;2024-01-07T06:56:36;18273.63;;;-141.84;67.40
15260;BME280;34462;51.368;12.364;2024-01-07T06:59:04;18267.53;;;-141.84;66.68
15260;BME280;34462;51.368;12.364;2024-01-07T07:01:34;18281.75;;;-141.84;66.71
15260;BME280;34462;51.368;12.364;2024-01-07T07:04:04;18259.41;;;-141.84;66.57
15260;BME280;34462;51.368;12.364;2024-01-07T07:06:32;18245.19;;;-141.84;66.50
15260;BME280;34462;51.368;12.364;2024-01-07T07:09:01;18247.22;;;-141.84;65.63
15260;BME280;34462;51.368;12.364;2024-01-07T07:11:30;18232.97;;;-141.84;65.93
15260;BME280;34462;51.368;12.364;2024-01-07T07:13:58;18226.88;;;-141.84;65.92
15260;BME280;34462;51.368;12.364;2024-01-07T07:16:26;18269.56;;;-141.84;65.03
15260;BME280;34462;51.368;12.364;2024-01-07T07:18:55;18249.25;;;-141.84;64.99
15260;BME280;34462;51.368;12.364;2024-01-07T07:21:24;18265.50;;;-141.84;64.71
15260;BME280;34462;51.368;12.364;2024-01-07T07:23:54;18235.00;;;-141.84;64.81
15260;BME280;34462;51.368;12.364;2024-01-07T07:26:23;18261.44;;;-141.84;64.94
15260;BME280;34462;51.368;12.364;2024-01-07T07:28:51;18273.63;;;-141.84;65.16
15260;BME280;34462;51.368;12.364;2024-01-07T07:31:19;18251.28;;;-141.84;66.26
15260;BME280;34462;51.368;12.364;2024-01-07T07:33:48;18261.44;;;-141.84;64.92
15260;BME280;34462;51.368;12.364;2024-01-07T07:36:17;18235.00;;;-141.84;65.13
15260;BME280;34462;51.368;12.364;2024-01-07T07:38:46;18255.34;;;-141.84;64.39
15260;BME280;34462;51.368;12.364;2024-01-07T07:41:15;18253.31;;;-141.84;64.69
15260;BME280;34462;51.368;12.364;2024-01-07T07:43:43;18281.75;;;-141.84;65.58
15260;BME280;34462;51.368;12.364;2024-01-07T07:46:12;18269.56;;;-141.84;65.65
15260;BME280;34462;51.368;12.364;2024-01-07T07:48:40;18281.75;;;-141.84;66.44
15260;BME280;34462;51.368;12.364;2024-01-07T07:51:09;18275.66;;;-141.84;65.72
15260;BME280;34462;51.368;12.364;2024-01-07T07:53:38;18273.63;;;-141.84;63.98
15260;BME280;34462;51.368;12.364;2024-01-07T07:56:08;18249.25;;;-141.84;63.75
15260;BME280;34462;51.368;12.364;2024-01-07T07:58:37;18245.19;;;-141.84;63.24
15260;BME280;34462;51.368;12.364;2024-01-07T08:01:06;18237.06;;;-141.84;62.85
15260;BME280;34462;51.368;12.364;2024-01-07T08:03:35;18285.81;;;-141.84;62.91
15260;BME280;34462;51.368;12.364;2024-01-07T08:06:04;18253.31;;;-141.84;61.98
15260;BME280;34462;51.368;12.364;2024-01-07T08:08:38;18271.59;;;-141.84;62.13
15260;BME280;34462;51.368;12.364;2024-01-07T08:11:07;18243.16;;;-141.84;62.29
15260;BME280;34462;51.368;12.364;2024-01-07T08:13:38;18293.94;;;-141.84;61.17
15260;BME280;34462;51.368;12.364;2024-01-07T08:16:06;18257.38;;;-141.84;60.89
15260;BME280;34462;51.368;12.364;2024-01-07T08:18:36;18289.88;;;-141.84;59.67
15260;BME280;34462;51.368;12.364;2024-01-07T08:21:05;18257.38;;;-141.84;60.14
15260;BME280;34462;51.368;12.364;2024-01-07T08:23:33;18257.38;;;-141.84;60.54
15260;BME280;34462;51.368;12.364;2024-01-07T08:26:02;18255.34;;;-141.84;61.04
15260;BME280;34462;51.368;12.364;2024-01-07T08:28:32;18245.19;;;-141.84;60.96
15260;BME280;34462;51.368;12.364;2024-01-07T08:31:00;18304.09;;;-141.84;61.16
15260;BME280;34462;51.368;12.364;2024-01-07T08:33:28;18261.44;;;-141.84;60.30
15260;BME280;34462;51.368;12.364;2024-01-07T08:36:00;18287.84;;;-141.84;60.83
15260;BME280;34462;51.368;12.364;2024-01-07T08:38:28;18265.50;;;-141.84;60.52
15260;BME280;34462;51.368;12.364;2024-01-07T08:40:56;18289.88;;;-141.84;60.74
15260;BME280;34462;51.368;12.364;2024-01-07T08:43:25;18300.03;;;-141.84;60.89
15260;BME280;34462;51.368;12.364;2024-01-07T08:45:54;18245.19;;;-141.84;61.49
15260;BME280;34462;51.368;12.364;2024-01-07T08:48:23;18232.97;;;-141.84;61.04
15260;BME280;34462;51.368;12.364;2024-01-07T08:50:51;18285.81;;;-141.84;60.21
15260;BME280;34462;51.368;12.364;2024-01-07T08:53:20;18271.59;;;-141.84;59.86
15260;BME280;34462;51.368;12.364;2024-01-07T08:55:49;18289.88;;;-141.84;60.22
15260;BME280;34462;51.368;12.364;2024-01-07T08:58:17;18257.38;;;-141.84;60.69
15260;BME280;34462;51.368;12.364;2024-01-07T09:00:46;18269.56;;;-141.84;61.34
15260;BME280;34462;51.368;12.364;2024-01-07T09:03:16;18283.78;;;-141.84;59.57
15260;BME280;34462;51.368;12.364;2024-01-07T09:05:45;18300.03;;;-141.84;59.63
15260;BME280;34462;51.368;12.364;2024-01-07T09:08:13;18281.75;;;-141.84;59.34
15260;BME280;34462;51.368;12.364;2024-01-07T09:10:42;18285.81;;;-141.84;57.41
15260;BME280;34462;51.368;12.364;2024-01-07T09:13:11;18300.03;;;-141.84;57.79
15260;BME280;34462;51.368;12.364;2024-01-07T09:15:39;18293.94;;;-141.84;57.92
15260;BME280;34462;51.368;12.364;2024-01-07T09:18:08;18310.19;;;-141.84;56.99
15260;BME280;34462;51.368;12.364;2024-01-07T09:20:38;18271.59;;;-141.84;57.67
15260;BME280;34462;51.368;12.364;2024-01-07T09:23:06;18273.63;;;-141.84;57.36
15260;BME280;34462;51.368;12.364;2024-01-07T09:25:34;18298.00;;;-141.84;56.86
15260;BME280;34462;51.368;12.364;2024-01-07T09:28:03;18261.44;;;-141.84;56.85
15260;BME280;34462;51.368;12.364;2024-01-07T09:30:32;18277.69;;;-141.84;56.48
15260;BME280;34462;51.368;12.364;2024-01-07T09:33:00;18285.81;;;-141.84;56.82
15260;BME280;34462;51.368;12.364;2024-01-07T09:35:29;18295.97;;;-141.84;57.07
15260;BME280;34462;51.368;12.364;2024-01-07T09:37:59;18302.06;;;-141.84;56.89
15260;BME280;34462;51.368;12.364;2024-01-07T09:40:27;18316.28;;;-141.84;56.60
15260;BME280;34462;51.368;12.364;2024-01-07T09:42:56;18330.50;;;-141.84;55.68
15260;BME280;34462;51.368;12.364;2024-01-07T09:45:28;18322.38;;;-141.84;54.84
15260;BME280;34462;51.368;12.364;2024-01-07T09:47:58;18298.00;;;-141.84;55.28
15260;BME280;34462;51.368;12.364;2024-01-07T09:50:26;18312.22;;;-141.84;55.18
15260;BME280;34462;51.368;12.364;2024-01-07T09:52:56;18300.03;;;-141.84;55.37
15260;BME280;34462;51.368;12.364;2024-01-07T09:55:40;18310.19;;;-141.84;54.63
15260;BME280;34462;51.368;12.364;2024-01-07T09:58:13;18314.25;;;-141.84;54.02
15260;BME280;34462;51.368;12.364;2024-01-07T10:00:41;18285.81;;;-141.84;54.31
15260;BME280;34462;51.368;12.364;2024-01-07T10:03:10;18324.41;;;-141.84;54.34
15260;BME280;34462;51.368;12.364;2024-01-07T10:05:38;18326.44;;;-141.84;54.29
15260;BME280;34462;51.368;12.364;2024-01-07T10:08:07;18310.19;;;-141.84;54.15
15260;BME280;34462;51.368;12.364;2024-01-07T10:10:37;18356.91;;;-141.84;53.73
15260;BME280;34462;51.368;12.364;2024-01-07T10:13:08;18320.34;;;-141.84;54.14
15260;BME280;34462;51.368;12.364;2024-01-07T10:15:36;18326.44;;;-141.84;52.06
15260;BME280;34462;51.368;12.364;2024-01-07T10:18:06;18300.03;;;-141.84;52.73
15260;BME280;34462;51.368;12.364;2024-01-07T10:20:35;18316.28;;;-141.84;52.61
15260;BME280;34462;51.368;12.364;2024-01-07T10:23:07;18320.34;;;-141.84;52.03
15260;BME280;34462;51.368;12.364;2024-01-07T10:25:38;18318.31;;;-141.84;51.73
15260;BME280;34462;51.368;12.364;2024-01-07T10:28:06;18328.47;;;-141.84;51.16
15260;BME280;34462;51.368;12.364;2024-01-07T10:30:38;18328.47;;;-141.84;51.75
15260;BME280;34462;51.368;12.364;2024-01-07T10:33:07;18338.63;;;-141.84;51.53
15260;BME280;34462;51.368;12.364;2024-01-07T10:35:39;18338.63;;;-141.84;51.00
15260;BME280;34462;51.368;12.364;2024-01-07T10:38:11;18363.00;;;-141.84;50.98
15260;BME280;34462;51.368;12.364;2024-01-07T10:40:42;18379.25;;;-141.84;50.33
15260;BME280;34462;51.368;12.364;2024-01-07T10:43:12;18387.38;;;-141.84;49.93
15260;BME280;34462;51.368;12.364;2024-01-07T10:45:45;18354.88;;;-141.84;49.67
15260;BME280;34462;51.368;12.364;2024-01-07T10:48:18;18358.94;;;-141.84;49.55
15260;BME280;34462;51.368;12.364;2024-01-07T10:50:48;18375.19;;;-141.84;49.57
15260;BME280;34462;51.368;12.364;2024-01-07T10:53:21;18365.03;;;-141.84;49.64
15260;BME280;34462;51.368;12.364;2024-01-07T10:56:00;18354.88;;;-141.84;49.62
15260;BME280;34462;51.368;12.364;2024-01-07T10:58:32;18379.25;;;-141.84;50.11
15260;BME280;34462;51.368;12.364;2024-01-07T11:01:02;18330.50;;;-141.84;50.02
15260;BME280;34462;51.368;12.364;2024-01-07T11:03:40;18330.50;;;-141.84;50.50
15260;BME280;34462;51.368;12.364;2024-01-07T11:06:22;18363.00;;;-141.84;50.01
15260;BME280;34462;51.368;12.364;2024-01-07T11:09:01;18354.88;;;-141.84;50.32
15260;BME280;34462;51.368;12.364;2024-01-07T11:11:38;18363.00;;;-141.84;51.07
15260;BME280;34462;51.368;12.364;2024-01-07T11:14:36;18358.94;;;-141.84;50.88
15260;BME280;34462;51.368;12.364;2024-01-07T11:17:06;18354.88;;;-141.84;51.51
15260;BME280;34462;51.368;12.364;2024-01-07T11:19:35;18328.47;;;-141.84;51.10
15260;BME280;34462;51.368;12.364;2024-01-07T11:22:24;18356.91;;;-141.84;51.68
15260;BME280;34462;51.368;12.364;2024-01-07T11:24:57;18342.69;;;-141.84;52.17
15260;BME280;34462;51.368;12.364;2024-01-07T11:27:30;18350.81;;;-141.84;51.35
15260;BME280;34462;51.368;12.364;2024-01-07T11:30:05;18330.50;;;-141.84;51.36
15260;BME280;34462;51.368;12.364;2024-01-07T11:32:34;18330.50;;;-141.84;51.42
15260;BME280;34462;51.368;12.364;2024-01-07T11:35:04;18328.47;;;-141.84;52.30
15260;BME280;34462;51.368;12.364;2024-01-07T11:37:32;18354.88;;;-141.84;52.11
15260;BME280;34462;51.368;12.364;2024-01-07T11:40:05;18314.25;;;-141.84;52.24
15260;BME280;34462;51.368;12.364;2024-01-07T11:42:36;18340.66;;;-141.84;52.60
15260;BME280;34462;51.368;12.364;2024-01-07T11:45:06;18334.56;;;-141.84;52.55
15260;BME280;34462;51.368;12.364;2024-01-07T11:47:38;18326.44;;;-141.84;52.29
15260;BME280;34462;51.368;12.364;2024-01-07T11:50:07;18363.00;;;-141.84;52.47
15260;BME280;34462;51.368;12.364;2024-01-07T11:52:35;18318.31;;;-141.84;53.17
15260;BME280;34462;51.368;12.364;2024-01-07T11:55:07;18334.56;;;-141.84;53.22
15260;BME280;34462;51.368;12.364;2024-01-07T11:57:37;18344.72;;;-141.84;52.80
15260;BME280;34462;51.368;12.364;2024-01-07T12:00:08;18352.84;;;-141.84;53.35
15260;BME280;34462;51.368;12.364;2024-01-07T12:02:37;18314.25;;;-141.84;54.01
15260;BME280;34462;51.368;12.364;2024-01-07T12:05:05;18332.53;;;-141.84;53.53
15260;BME280;34462;51.368;12.364;2024-01-07T12:07:34;18326.44;;;-141.84;53.99
15260;BME280;34462;51.368;12.364;2024-01-07T12:10:08;18354.88;;;-141.84;54.07
15260;BME280;34462;51.368;12.364;2024-01-07T12:12:41;18387.38;;;-141.84;54.45
15260;BME280;34462;51.368;12.364;2024-01-07T12:15:10;18322.38;;;-141.84;54.92
15260;BME280;34462;51.368;12.364;2024-01-07T12:17:39;18324.41;;;-141.84;55.51
15260;BME280;34462;51.368;12.364;2024-01-07T12:20:09;18318.31;;;-141.84;55.59
15260;BME280;34462;51.368;12.364;2024-01-07T12:22:38;18330.50;;;-141.84;55.36
15260;BME280;34462;51.368;12.364;2024-01-07T12:25:07;18298.00;;;-141.84;55.00
15260;BME280;34462;51.368;12.364;2024-01-07T12:27:38;18326.44;;;-141.84;54.88
15260;BME280;34462;51.368;12.364;2024-01-07T12:30:09;18342.69;;;-141.84;55.36
15260;BME280;34462;51.368;12.364;2024-01-07T12:32:38;18326.44;;;-141.84;55.82
15260;BME280;34462;51.368;12.364;2024-01-07T12:35:08;18295.97;;;-141.84;55.35
15260;BME280;34462;51.368;12.364;2024-01-07T12:37:37;18342.69;;;-141.84;55.38
15260;BME280;34462;51.368;12.364;2024-01-07T12:40:07;18358.94;;;-141.84;55.58
15260;BME280;34462;51.368;12.364;2024-01-07T12:42:39;18340.66;;;-141.84;55.34